sensor_id;sensor_type;location;lat;lon;timestamp;P1;P2;P0
39714;PMS5003;54166;53.172;-6.552;2023-04-25T00:02:25;5;5;
39714;PMS5003;54166;53.172;-6.552;2023-04-25T00:04:53;3;3;
39714;PMS5003;54166;53.172;-6.552;2023-04-25T00:07:21;3;3;
39714;PMS5003;54166;53.172;-6.552;2023-04-25T00:09:49;4;4;
39714;PMS5003;54166;53.172;-6.552;2023-04-25T00:12:16;3;3;
39714;PMS5003;54166;53.172;-6.552;2023-04-25T00:14:44;3;3;
39714;PMS5003;54166;53.172;-6.552;2023-04-25T00:17:12;4;4;
39714;PMS5003;54166;53.172;-6.552;2023-04-25T00:19:41;3;3;
39714;PMS5003;54166;53.172;-6.552;2023-04-25T00:22:08;4;4;
39714;PMS5003;54166;53.172;-6.552;2023-04-25T00:24:36;3;3;
39714;PMS5003;54166;53.172;-6.552;2023-04-25T00:27:04;4;4;
39714;PMS5003;54166;53.172;-6.552;2023-04-25T00:29:31;5;4;
39714;PMS5003;54166;53.172;-6.552;2023-04-25T00:31:59;4;4;
39714;PMS5003;54166;53.172;-6.552;2023-04-25T00:34:27;3;3;
39714;PMS5003;54166;53.172;-6.552;2023-04-25T00:36:55;3;2;
39714;PMS5003;54166;53.172;-6.552;2023-04-25T00:39:23;3;2;
39714;PMS5003;54166;53.172;-6.552;2023-04-25T00:41:51;4;4;
39714;PMS5003;54166;53.172;-6.552;2023-04-25T00:44:20;2;2;
39714;PMS5003;54166;53.172;-6.552;2023-04-25T00:46:48;2;2;
39714;PMS5003;54166;53.172;-6.552;2023-04-25T00:49:16;3;3;
39714;PMS5003;54166;53.172;-6.552;2023-04-25T00:51:44;2;2;
39714;PMS5003;54166;53.172;-6.552;2023-04-25T00:54:12;5;4;
39714;PMS5003;54166;53.172;-6.552;2023-04-25T00:56:40;3;3;
39714;PMS5003;54166;53.172;-6.552;2023-04-25T00:59:08;2;2;
39714;PMS5003;54166;53.172;-6.552;2023-04-25T01:01:36;2;2;
39714;PMS5003;54166;53.172;-6.552;2023-04-25T01:04:06;3;3;
39714;PMS5003;54166;53.172;-6.552;2023-04-25T01:06:35;2;2;
39714;PMS5003;54166;53.172;-6.552;2023-04-25T01:09:02;3;3;
39714;PMS5003;54166;53.172;-6.552;2023-04-25T01:11:31;2;2;
39714;PMS5003;54166;53.172;-6.552;2023-04-25T01:13:59;2;2;
39714;PMS5003;54166;53.172;-6.552;2023-04-25T01:16:28;5;4;
39714;PMS5003;54166;53.172;-6.552;2023-04-25T01:18:56;4;3;
39714;PMS5003;54166;53.172;-6.552;2023-04-25T01:21:23;3;3;
39714;PMS5003;54166;53.172;-6.552;2023-04-25T01:23:51;4;4;
39714;PMS5003;54166;53.172;-6.552;2023-04-25T01:26:20;3;3;
39714;PMS5003;54166;53.172;-6.552;2023-04-25T01:28:49;4;3;
39714;PMS5003;54166;53.172;-6.552;2023-04-25T01:31:16;2;2;
39714;PMS5003;54166;53.172;-6.552;2023-04-25T01:33:44;2;2;
39714;PMS5003;54166;53.172;-6.552;2023-04-25T01:36:12;3;3;
39714;PMS5003;54166;53.172;-6.552;2023-04-25T01:38:41;3;3;
39714;PMS5003;54166;53.172;-6.552;2023-04-25T01:41:09;2;2;
39714;PMS5003;54166;53.172;-6.552;2023-04-25T01:43:42;2;2;
39714;PMS5003;54166;53.172;-6.552;2023-04-25T01:46:10;3;3;
39714;PMS5003;54166;53.172;-6.552;2023-04-25T01:48:38;2;2;
39714;PMS5003;54166;53.172;-6.552;2023-04-25T01:51:06;3;3;
39714;PMS5003;54166;53.172;-6.552;2023-04-25T01:53:33;3;3;
39714;PMS5003;54166;53.172;-6.552;2023-04-25T01:56:01;4;4;
39714;PMS5003;54166;53.172;-6.552;2023-04-25T01:58:29;2;2;
39714;PMS5003;54166;53.172;-6.552;2023-04-25T02:00:57;3;3;
39714;PMS5003;54166;53.172;-6.552;2023-04-25T02:03:25;2;2;
39714;PMS5003;54166;53.172;-6.552;2023-04-25T02:05:53;4;3;
39714;PMS5003;54166;53.172;-6.552;2023-04-25T02:08:21;3;2;
39714;PMS5003;54166;53.172;-6.552;2023-04-25T02:10:48;3;3;
39714;PMS5003;54166;53.172;-6.552;2023-04-25T02:13:16;4;4;
39714;PMS5003;54166;53.172;-6.552;2023-04-25T02:15:44;3;3;
39714;PMS5003;54166;53.172;-6.552;2023-04-25T02:18:12;3;3;
39714;PMS5003;54166;53.172;-6.552;2023-04-25T02:20:41;4;3;
39714;PMS5003;54166;53.172;-6.552;2023-04-25T02:23:09;3;3;
39714;PMS5003;54166;53.172;-6.552;2023-04-25T02:25:37;3;3;
39714;PMS5003;54166;53.172;-6.552;2023-04-25T02:28:05;3;3;
39714;PMS5003;54166;53.172;-6.552;2023-04-25T02:30:32;2;2;
39714;PMS5003;54166;53.172;-6.552;2023-04-25T02:33:00;4;3;
39714;PMS5003;54166;53.172;-6.552;2023-04-25T02:35:28;3;2;
39714;PMS5003;54166;53.172;-6.552;2023-04-25T02:37:56;3;2;
39714;PMS5003;54166;53.172;-6.552;2023-04-25T02:40:24;3;3;
39714;PMS5003;54166;53.172;-6.552;2023-04-25T02:42:52;2;2;
39714;PMS5003;54166;53.172;-6.552;2023-04-25T02:45:20;3;3;
39714;PMS5003;54166;53.172;-6.552;2023-04-25T02:47:48;3;2;
39714;PMS5003;54166;53.172;-6.552;2023-04-25T02:50:16;4;4;
39714;PMS5003;54166;53.172;-6.552;2023-04-25T02:52:44;3;3;
39714;PMS5003;54166;53.172;-6.552;2023-04-25T02:55:12;3;3;
39714;PMS5003;54166;53.172;-6.552;2023-04-25T02:57:40;4;4;
39714;PMS5003;54166;53.172;-6.552;2023-04-25T03:00:08;3;3;
39714;PMS5003;54166;53.172;-6.552;2023-04-25T03:02:36;2;2;
39714;PMS5003;54166;53.172;-6.552;2023-04-25T03:05:04;1;1;
39714;PMS5003;54166;53.172;-6.552;2023-04-25T03:07:32;2;2;
39714;PMS5003;54166;53.172;-6.552;2023-04-25T03:10:00;2;1;
39714;PMS5003;54166;53.172;-6.552;2023-04-25T03:12:28;2;2;
39714;PMS5003;54166;53.172;-6.552;2023-04-25T03:14:56;0;0;
39714;PMS5003;54166;53.172;-6.552;2023-04-25T03:17:23;2;2;
39714;PMS5003;54166;53.172;-6.552;2023-04-25T03:19:51;3;3;
39714;PMS5003;54166;53.172;-6.552;2023-04-25T03:22:19;3;3;
39714;PMS5003;54166;53.172;-6.552;2023-04-25T03:24:47;3;3;
39714;PMS5003;54166;53.172;-6.552;2023-04-25T03:27:15;1;1;
39714;PMS5003;54166;53.172;-6.552;2023-04-25T03:29:43;4;3;
39714;PMS5003;54166;53.172;-6.552;2023-04-25T03:32:11;2;2;
39714;PMS5003;54166;53.172;-6.552;2023-04-25T03:34:39;3;3;
39714;PMS5003;54166;53.172;-6.552;2023-04-25T03:37:06;2;2;
39714;PMS5003;54166;53.172;-6.552;2023-04-25T03:39:34;2;2;
39714;PMS5003;54166;53.172;-6.552;2023-04-25T03:42:02;3;3;
39714;PMS5003;54166;53.172;-6.552;2023-04-25T03:44:30;3;3;
39714;PMS5003;54166;53.172;-6.552;2023-04-25T03:46:58;3;3;
39714;PMS5003;54166;53.172;-6.552;2023-04-25T03:49:26;2;2;
39714;PMS5003;54166;53.172;-6.552;2023-04-25T03:51:54;2;2;
39714;PMS5003;54166;53.172;-6.552;2023-04-25T03:54:22;3;3;
39714;PMS5003;54166;53.172;-6.552;2023-04-25T03:56:49;3;2;
39714;PMS5003;54166;53.172;-6.552;2023-04-25T03:59:17;3;3;
39714;PMS5003;54166;53.172;-6.552;2023-04-25T04:01:45;2;2;
39714;PMS5003;54166;53.172;-6.552;2023-04-25T04:04:13;2;2;
39714;PMS5003;54166;53.172;-6.552;2023-04-25T04:06:41;2;2;
39714;PMS5003;54166;53.172;-6.552;2023-04-25T04:09:09;2;2;
39714;PMS5003;54166;53.172;-6.552;2023-04-25T04:11:37;3;3;
39714;PMS5003;54166;53.172;-6.552;2023-04-25T04:14:05;2;2;
39714;PMS5003;54166;53.172;-6.552;2023-04-25T04:16:32;3;3;
39714;PMS5003;54166;53.172;-6.552;2023-04-25T04:19:00;3;2;
39714;PMS5003;54166;53.172;-6.552;2023-04-25T04:21:28;2;2;
39714;PMS5003;54166;53.172;-6.552;2023-04-25T04:23:56;2;2;
39714;PMS5003;54166;53.172;-6.552;2023-04-25T04:26:24;1;1;
39714;PMS5003;54166;53.172;-6.552;2023-04-25T04:28:52;2;2;
39714;PMS5003;54166;53.172;-6.552;2023-04-25T04:31:20;3;3;
39714;PMS5003;54166;53.172;-6.552;2023-04-25T04:33:48;3;2;
39714;PMS5003;54166;53.172;-6.552;2023-04-25T04:36:15;0;0;
39714;PMS5003;54166;53.172;-6.552;2023-04-25T04:38:43;2;2;
39714;PMS5003;54166;53.172;-6.552;2023-04-25T04:41:11;1;1;
39714;PMS5003;54166;53.172;-6.552;2023-04-25T04:43:39;2;2;
39714;PMS5003;54166;53.172;-6.552;2023-04-25T04:46:07;2;2;
39714;PMS5003;54166;53.172;-6.552;2023-04-25T04:48:35;2;2;
39714;PMS5003;54166;53.172;-6.552;2023-04-25T04:52:06;2;1;
39714;PMS5003;54166;53.172;-6.552;2023-04-25T04:54:33;3;3;
39714;PMS5003;54166;53.172;-6.552;2023-04-25T04:57:01;3;3;
39714;PMS5003;54166;53.172;-6.552;2023-04-25T04:59:29;1;1;
39714;PMS5003;54166;53.172;-6.552;2023-04-25T05:01:57;3;3;
39714;PMS5003;54166;53.172;-6.552;2023-04-25T05:04:25;3;3;
39714;PMS5003;54166;53.172;-6.552;2023-04-25T05:06:53;3;3;
39714;PMS5003;54166;53.172;-6.552;2023-04-25T05:09:21;0;0;
39714;PMS5003;54166;53.172;-6.552;2023-04-25T05:11:48;2;2;
39714;PMS5003;54166;53.172;-6.552;2023-04-25T05:14:16;1;1;
39714;PMS5003;54166;53.172;-6.552;2023-04-25T05:16:44;3;3;
39714;PMS5003;54166;53.172;-6.552;2023-04-25T05:19:12;1;1;
39714;PMS5003;54166;53.172;-6.552;2023-04-25T05:21:41;2;2;
39714;PMS5003;54166;53.172;-6.552;2023-04-25T05:24:09;2;2;
39714;PMS5003;54166;53.172;-6.552;2023-04-25T05:26:37;1;1;
39714;PMS5003;54166;53.172;-6.552;2023-04-25T05:29:04;1;1;
39714;PMS5003;54166;53.172;-6.552;2023-04-25T05:31:32;3;3;
39714;PMS5003;54166;53.172;-6.552;2023-04-25T05:34:01;1;1;
39714;PMS5003;54166;53.172;-6.552;2023-04-25T05:36:29;2;2;
39714;PMS5003;54166;53.172;-6.552;2023-04-25T05:38:57;1;1;
39714;PMS5003;54166;53.172;-6.552;2023-04-25T05:41:25;2;2;
39714;PMS5003;54166;53.172;-6.552;2023-04-25T05:43:53;2;2;
39714;PMS5003;54166;53.172;-6.552;2023-04-25T05:46:20;0;0;
39714;PMS5003;54166;53.172;-6.552;2023-04-25T05:48:48;1;1;
39714;PMS5003;54166;53.172;-6.552;2023-04-25T05:51:16;0;0;
39714;PMS5003;54166;53.172;-6.552;2023-04-25T05:53:44;3;3;
39714;PMS5003;54166;53.172;-6.552;2023-04-25T05:56:12;1;0;
39714;PMS5003;54166;53.172;-6.552;2023-04-25T05:58:40;2;2;
39714;PMS5003;54166;53.172;-6.552;2023-04-25T06:01:08;2;1;
39714;PMS5003;54166;53.172;-6.552;2023-04-25T06:03:41;1;0;
39714;PMS5003;54166;53.172;-6.552;2023-04-25T06:06:09;1;1;
39714;PMS5003;54166;53.172;-6.552;2023-04-25T06:08:37;1;1;
39714;PMS5003;54166;53.172;-6.552;2023-04-25T06:11:05;4;4;
39714;PMS5003;54166;53.172;-6.552;2023-04-25T06:13:33;3;2;
39714;PMS5003;54166;53.172;-6.552;2023-04-25T06:16:01;1;1;
39714;PMS5003;54166;53.172;-6.552;2023-04-25T06:18:29;2;2;
39714;PMS5003;54166;53.172;-6.552;2023-04-25T06:20:57;1;1;
39714;PMS5003;54166;53.172;-6.552;2023-04-25T06:23:24;3;3;
39714;PMS5003;54166;53.172;-6.552;2023-04-25T06:25:52;2;2;
39714;PMS5003;54166;53.172;-6.552;2023-04-25T06:28:20;2;2;
39714;PMS5003;54166;53.172;-6.552;2023-04-25T06:30:48;3;2;
39714;PMS5003;54166;53.172;-6.552;2023-04-25T06:33:16;2;2;
39714;PMS5003;54166;53.172;-6.552;2023-04-25T06:35:44;3;1;
39714;PMS5003;54166;53.172;-6.552;2023-04-25T06:38:12;1;1;
39714;PMS5003;54166;53.172;-6.552;2023-04-25T06:40:40;1;1;
39714;PMS5003;54166;53.172;-6.552;2023-04-25T06:43:07;2;2;
39714;PMS5003;54166;53.172;-6.552;2023-04-25T06:45:35;2;2;
39714;PMS5003;54166;53.172;-6.552;2023-04-25T06:48:03;2;2;
39714;PMS5003;54166;53.172;-6.552;2023-04-25T06:50:31;2;2;
39714;PMS5003;54166;53.172;-6.552;2023-04-25T06:53:00;1;1;
39714;PMS5003;54166;53.172;-6.552;2023-04-25T06:55:28;2;2;
39714;PMS5003;54166;53.172;-6.552;2023-04-25T06:57:56;3;3;
39714;PMS5003;54166;53.172;-6.552;2023-04-25T07:00:24;2;2;
39714;PMS5003;54166;53.172;-6.552;2023-04-25T07:02:51;1;1;
39714;PMS5003;54166;53.172;-6.552;2023-04-25T07:05:19;2;2;
39714;PMS5003;54166;53.172;-6.552;2023-04-25T07:07:47;2;2;
39714;PMS5003;54166;53.172;-6.552;2023-04-25T07:10:15;2;2;
39714;PMS5003;54166;53.172;-6.552;2023-04-25T07:12:43;1;1;
39714;PMS5003;54166;53.172;-6.552;2023-04-25T07:15:11;2;2;
39714;PMS5003;54166;53.172;-6.552;2023-04-25T07:17:39;1;1;
39714;PMS5003;54166;53.172;-6.552;2023-04-25T07:20:07;0;0;
39714;PMS5003;54166;53.172;-6.552;2023-04-25T07:22:35;2;2;
39714;PMS5003;54166;53.172;-6.552;2023-04-25T07:25:03;1;1;
39714;PMS5003;54166;53.172;-6.552;2023-04-25T07:27:32;2;2;
39714;PMS5003;54166;53.172;-6.552;2023-04-25T07:30:00;0;0;
39714;PMS5003;54166;53.172;-6.552;2023-04-25T07:32:27;2;2;
39714;PMS5003;54166;53.172;-6.552;2023-04-25T07:34:55;3;2;
39714;PMS5003;54166;53.172;-6.552;2023-04-25T07:37:23;2;2;
39714;PMS5003;54166;53.172;-6.552;2023-04-25T07:39:51;1;1;
39714;PMS5003;54166;53.172;-6.552;2023-04-25T07:42:19;3;3;
39714;PMS5003;54166;53.172;-6.552;2023-04-25T07:44:47;2;1;
39714;PMS5003;54166;53.172;-6.552;2023-04-25T07:47:15;2;2;
39714;PMS5003;54166;53.172;-6.552;2023-04-25T07:49:43;1;1;
39714;PMS5003;54166;53.172;-6.552;2023-04-25T07:52:10;2;2;
39714;PMS5003;54166;53.172;-6.552;2023-04-25T07:54:38;1;1;
39714;PMS5003;54166;53.172;-6.552;2023-04-25T07:57:06;1;1;
39714;PMS5003;54166;53.172;-6.552;2023-04-25T07:59:34;0;0;
39714;PMS5003;54166;53.172;-6.552;2023-04-25T08:02:02;2;1;
39714;PMS5003;54166;53.172;-6.552;2023-04-25T08:04:30;3;3;
39714;PMS5003;54166;53.172;-6.552;2023-04-25T08:06:57;1;1;
39714;PMS5003;54166;53.172;-6.552;2023-04-25T08:09:25;2;2;
39714;PMS5003;54166;53.172;-6.552;2023-04-25T08:11:53;2;2;
39714;PMS5003;54166;53.172;-6.552;2023-04-25T08:14:21;2;2;
39714;PMS5003;54166;53.172;-6.552;2023-04-25T08:16:49;0;0;
39714;PMS5003;54166;53.172;-6.552;2023-04-25T08:19:17;1;0;
39714;PMS5003;54166;53.172;-6.552;2023-04-25T08:21:45;1;1;
39714;PMS5003;54166;53.172;-6.552;2023-04-25T08:24:12;1;1;
39714;PMS5003;54166;53.172;-6.552;2023-04-25T08:26:41;2;2;
39714;PMS5003;54166;53.172;-6.552;2023-04-25T08:29:08;2;2;
39714;PMS5003;54166;53.172;-6.552;2023-04-25T08:31:37;1;1;
39714;PMS5003;54166;53.172;-6.552;2023-04-25T08:34:04;2;2;
39714;PMS5003;54166;53.172;-6.552;2023-04-25T08:36:32;1;1;
39714;PMS5003;54166;53.172;-6.552;2023-04-25T08:39:00;1;1;
39714;PMS5003;54166;53.172;-6.552;2023-04-25T08:41:28;1;1;
39714;PMS5003;54166;53.172;-6.552;2023-04-25T08:43:56;1;1;
39714;PMS5003;54166;53.172;-6.552;2023-04-25T08:46:24;1;1;
39714;PMS5003;54166;53.172;-6.552;2023-04-25T08:48:52;1;1;
39714;PMS5003;54166;53.172;-6.552;2023-04-25T08:51:23;1;1;
39714;PMS5003;54166;53.172;-6.552;2023-04-25T08:53:52;1;1;
39714;PMS5003;54166;53.172;-6.552;2023-04-25T08:56:20;1;1;
39714;PMS5003;54166;53.172;-6.552;2023-04-25T08:58:48;1;1;
39714;PMS5003;54166;53.172;-6.552;2023-04-25T09:01:16;1;1;
39714;PMS5003;54166;53.172;-6.552;2023-04-25T09:03:44;3;3;
39714;PMS5003;54166;53.172;-6.552;2023-04-25T09:06:11;0;0;
39714;PMS5003;54166;53.172;-6.552;2023-04-25T09:08:40;0;0;
39714;PMS5003;54166;53.172;-6.552;2023-04-25T09:11:08;1;1;
39714;PMS5003;54166;53.172;-6.552;2023-04-25T09:13:36;3;3;
39714;PMS5003;54166;53.172;-6.552;2023-04-25T09:16:04;2;2;
39714;PMS5003;54166;53.172;-6.552;2023-04-25T09:18:33;1;1;
39714;PMS5003;54166;53.172;-6.552;2023-04-25T09:21:04;1;1;
39714;PMS5003;54166;53.172;-6.552;2023-04-25T09:23:38;0;0;
39714;PMS5003;54166;53.172;-6.552;2023-04-25T09:26:08;2;2;
39714;PMS5003;54166;53.172;-6.552;2023-04-25T09:28:36;1;1;
39714;PMS5003;54166;53.172;-6.552;2023-04-25T09:31:04;1;1;
39714;PMS5003;54166;53.172;-6.552;2023-04-25T09:33:32;1;0;
39714;PMS5003;54166;53.172;-6.552;2023-04-25T09:36:01;1;1;
39714;PMS5003;54166;53.172;-6.552;2023-04-25T09:38:31;1;0;
39714;PMS5003;54166;53.172;-6.552;2023-04-25T09:41:06;1;1;
39714;PMS5003;54166;53.172;-6.552;2023-04-25T09:43:35;1;1;
39714;PMS5003;54166;53.172;-6.552;2023-04-25T09:46:04;0;0;
39714;PMS5003;54166;53.172;-6.552;2023-04-25T09:48:36;1;1;
39714;PMS5003;54166;53.172;-6.552;2023-04-25T09:51:05;1;1;
39714;PMS5003;54166;53.172;-6.552;2023-04-25T09:53:33;1;1;
39714;PMS5003;54166;53.172;-6.552;2023-04-25T09:56:03;1;1;
39714;PMS5003;54166;53.172;-6.552;2023-04-25T09:58:33;1;1;
39714;PMS5003;54166;53.172;-6.552;2023-04-25T10:01:02;0;0;
39714;PMS5003;54166;53.172;-6.552;2023-04-25T10:03:37;1;1;
39714;PMS5003;54166;53.172;-6.552;2023-04-25T10:06:06;1;1;
39714;PMS5003;54166;53.172;-6.552;2023-04-25T10:08:36;1;1;
39714;PMS5003;54166;53.172;-6.552;2023-04-25T10:11:05;1;1;
39714;PMS5003;54166;53.172;-6.552;2023-04-25T10:13:35;1;1;
39714;PMS5003;54166;53.172;-6.552;2023-04-25T10:16:03;1;1;
39714;PMS5003;54166;53.172;-6.552;2023-04-25T10:18:32;2;1;
39714;PMS5003;54166;53.172;-6.552;2023-04-25T10:21:00;1;1;
39714;PMS5003;54166;53.172;-6.552;2023-04-25T10:23:32;1;1;
39714;PMS5003;54166;53.172;-6.552;2023-04-25T10:26:00;0;0;
39714;PMS5003;54166;53.172;-6.552;2023-04-25T10:28:28;1;1;
39714;PMS5003;54166;53.172;-6.552;2023-04-25T10:30:57;1;1;
39714;PMS5003;54166;53.172;-6.552;2023-04-25T10:33:32;1;1;
39714;PMS5003;54166;53.172;-6.552;2023-04-25T10:36:10;1;1;
39714;PMS5003;54166;53.172;-6.552;2023-04-25T10:38:40;1;1;
39714;PMS5003;54166;53.172;-6.552;2023-04-25T10:41:11;1;1;
39714;PMS5003;54166;53.172;-6.552;2023-04-25T10:43:41;0;0;
39714;PMS5003;54166;53.172;-6.552;2023-04-25T10:46:14;1;1;
39714;PMS5003;54166;53.172;-6.552;2023-04-25T10:48:45;1;1;
39714;PMS5003;54166;53.172;-6.552;2023-04-25T10:51:16;2;2;
39714;PMS5003;54166;53.172;-6.552;2023-04-25T10:53:46;0;0;
39714;PMS5003;54166;53.172;-6.552;2023-04-25T10:56:23;1;1;
39714;PMS5003;54166;53.172;-6.552;2023-04-25T10:59:03;0;0;
39714;PMS5003;54166;53.172;-6.552;2023-04-25T11:01:38;1;1;
39714;PMS5003;54166;53.172;-6.552;2023-04-25T11:04:19;1;1;
39714;PMS5003;54166;53.172;-6.552;2023-04-25T11:06:52;1;1;
39714;PMS5003;54166;53.172;-6.552;2023-04-25T11:09:30;0;0;
39714;PMS5003;54166;53.172;-6.552;2023-04-25T11:12:01;1;1;
39714;PMS5003;54166;53.172;-6.552;2023-04-25T11:14:30;0;0;
39714;PMS5003;54166;53.172;-6.552;2023-04-25T11:17:00;1;1;
39714;PMS5003;54166;53.172;-6.552;2023-04-25T11:19:28;0;0;
39714;PMS5003;54166;53.172;-6.552;2023-04-25T11:21:57;1;1;
39714;PMS5003;54166;53.172;-6.552;2023-04-25T11:24:27;0;0;
39714;PMS5003;54166;53.172;-6.552;2023-04-25T11:26:55;0;0;
39714;PMS5003;54166;53.172;-6.552;2023-04-25T11:29:26;0;0;
39714;PMS5003;54166;53.172;-6.552;2023-04-25T11:31:54;1;1;
39714;PMS5003;54166;53.172;-6.552;2023-04-25T11:34:22;1;1;
39714;PMS5003;54166;53.172;-6.552;2023-04-25T11:36:50;0;0;
39714;PMS5003;54166;53.172;-6.552;2023-04-25T11:39:18;1;1;
39714;PMS5003;54166;53.172;-6.552;2023-04-25T11:41:46;0;0;
39714;PMS5003;54166;53.172;-6.552;2023-04-25T11:44:15;0;0;
39714;PMS5003;54166;53.172;-6.552;2023-04-25T11:46:44;1;1;
39714;PMS5003;54166;53.172;-6.552;2023-04-25T11:49:13;1;1;
39714;PMS5003;54166;53.172;-6.552;2023-04-25T11:51:42;0;0;
39714;PMS5003;54166;53.172;-6.552;2023-04-25T11:54:11;1;1;
39714;PMS5003;54166;53.172;-6.552;2023-04-25T11:56:40;1;1;
39714;PMS5003;54166;53.172;-6.552;2023-04-25T11:59:10;1;1;
39714;PMS5003;54166;53.172;-6.552;2023-04-25T12:01:39;0;0;
39714;PMS5003;54166;53.172;-6.552;2023-04-25T12:04:11;1;1;
39714;PMS5003;54166;53.172;-6.552;2023-04-25T12:06:44;2;2;
39714;PMS5003;54166;53.172;-6.552;2023-04-25T12:09:15;1;1;
39714;PMS5003;54166;53.172;-6.552;2023-04-25T12:11:45;1;1;
39714;PMS5003;54166;53.172;-6.552;2023-04-25T12:14:21;2;2;
39714;PMS5003;54166;53.172;-6.552;2023-04-25T12:16:51;1;1;
39714;PMS5003;54166;53.172;-6.552;2023-04-25T12:19:22;1;1;
39714;PMS5003;54166;53.172;-6.552;2023-04-25T12:21:50;1;1;
39714;PMS5003;54166;53.172;-6.552;2023-04-25T12:24:22;0;0;
39714;PMS5003;54166;53.172;-6.552;2023-04-25T12:26:52;6;6;
39714;PMS5003;54166;53.172;-6.552;2023-04-25T12:29:25;2;2;
39714;PMS5003;54166;53.172;-6.552;2023-04-25T12:31:54;23;22;
39714;PMS5003;54166;53.172;-6.552;2023-04-25T12:34:23;21;20;
39714;PMS5003;54166;53.172;-6.552;2023-04-25T12:36:53;19;19;
39714;PMS5003;54166;53.172;-6.552;2023-04-25T12:39:22;18;17;
39714;PMS5003;54166;53.172;-6.552;2023-04-25T12:41:52;12;12;
39714;PMS5003;54166;53.172;-6.552;2023-04-25T12:44:20;11;11;
39714;PMS5003;54166;53.172;-6.552;2023-04-25T12:46:48;11;11;
39714;PMS5003;54166;53.172;-6.552;2023-04-25T12:49:16;8;8;
39714;PMS5003;54166;53.172;-6.552;2023-04-25T12:51:44;5;5;
39714;PMS5003;54166;53.172;-6.552;2023-04-25T12:54:12;7;7;
39714;PMS5003;54166;53.172;-6.552;2023-04-25T12:56:40;7;7;
39714;PMS5003;54166;53.172;-6.552;2023-04-25T12:59:09;10;7;
39714;PMS5003;54166;53.172;-6.552;2023-04-25T13:01:37;6;6;
39714;PMS5003;54166;53.172;-6.552;2023-04-25T13:04:05;6;6;
39714;PMS5003;54166;53.172;-6.552;2023-04-25T13:06:33;5;5;
39714;PMS5003;54166;53.172;-6.552;2023-04-25T13:09:02;5;5;
39714;PMS5003;54166;53.172;-6.552;2023-04-25T13:11:32;7;7;
39714;PMS5003;54166;53.172;-6.552;2023-04-25T13:14:01;5;5;
39714;PMS5003;54166;53.172;-6.552;2023-04-25T13:16:29;6;6;
39714;PMS5003;54166;53.172;-6.552;2023-04-25T13:18:57;4;4;
39714;PMS5003;54166;53.172;-6.552;2023-04-25T13:21:24;3;3;
39714;PMS5003;54166;53.172;-6.552;2023-04-25T13:23:52;4;4;
39714;PMS5003;54166;53.172;-6.552;2023-04-25T13:26:20;4;4;
39714;PMS5003;54166;53.172;-6.552;2023-04-25T13:28:48;6;5;
39714;PMS5003;54166;53.172;-6.552;2023-04-25T13:31:16;4;4;
39714;PMS5003;54166;53.172;-6.552;2023-04-25T13:33:44;5;4;
39714;PMS5003;54166;53.172;-6.552;2023-04-25T13:36:12;4;4;
39714;PMS5003;54166;53.172;-6.552;2023-04-25T13:38:39;3;3;
39714;PMS5003;54166;53.172;-6.552;2023-04-25T13:41:10;4;4;
39714;PMS5003;54166;53.172;-6.552;2023-04-25T13:43:38;5;4;
39714;PMS5003;54166;53.172;-6.552;2023-04-25T13:46:06;5;4;
39714;PMS5003;54166;53.172;-6.552;2023-04-25T13:48:34;5;4;
39714;PMS5003;54166;53.172;-6.552;2023-04-25T13:51:02;5;4;
39714;PMS5003;54166;53.172;-6.552;2023-04-25T13:53:29;6;5;
39714;PMS5003;54166;53.172;-6.552;2023-04-25T13:55:57;4;4;
39714;PMS5003;54166;53.172;-6.552;2023-04-25T13:58:25;4;4;
39714;PMS5003;54166;53.172;-6.552;2023-04-25T14:00:53;4;4;
39714;PMS5003;54166;53.172;-6.552;2023-04-25T14:03:22;4;4;
39714;PMS5003;54166;53.172;-6.552;2023-04-25T14:05:51;3;3;
39714;PMS5003;54166;53.172;-6.552;2023-04-25T14:08:18;4;3;
39714;PMS5003;54166;53.172;-6.552;2023-04-25T14:10:47;2;2;
39714;PMS5003;54166;53.172;-6.552;2023-04-25T14:13:15;3;2;
39714;PMS5003;54166;53.172;-6.552;2023-04-25T14:15:43;3;3;
39714;PMS5003;54166;53.172;-6.552;2023-04-25T14:18:11;4;3;
39714;PMS5003;54166;53.172;-6.552;2023-04-25T14:20:38;3;3;
39714;PMS5003;54166;53.172;-6.552;2023-04-25T14:23:11;3;3;
39714;PMS5003;54166;53.172;-6.552;2023-04-25T14:25:39;2;2;
39714;PMS5003;54166;53.172;-6.552;2023-04-25T14:28:07;2;2;
39714;PMS5003;54166;53.172;-6.552;2023-04-25T14:30:36;3;3;
39714;PMS5003;54166;53.172;-6.552;2023-04-25T14:33:04;2;2;
39714;PMS5003;54166;53.172;-6.552;2023-04-25T14:35:32;2;2;
39714;PMS5003;54166;53.172;-6.552;2023-04-25T14:37:59;0;0;
39714;PMS5003;54166;53.172;-6.552;2023-04-25T14:40:28;4;4;
39714;PMS5003;54166;53.172;-6.552;2023-04-25T14:42:55;3;3;
39714;PMS5003;54166;53.172;-6.552;2023-04-25T14:45:23;4;4;
39714;PMS5003;54166;53.172;-6.552;2023-04-25T14:47:51;3;2;
39714;PMS5003;54166;53.172;-6.552;2023-04-25T14:50:19;3;3;
39714;PMS5003;54166;53.172;-6.552;2023-04-25T14:52:47;3;3;
39714;PMS5003;54166;53.172;-6.552;2023-04-25T14:55:14;3;3;
39714;PMS5003;54166;53.172;-6.552;2023-04-25T14:57:42;4;3;
39714;PMS5003;54166;53.172;-6.552;2023-04-25T15:00:11;3;3;
39714;PMS5003;54166;53.172;-6.552;2023-04-25T15:02:39;2;2;
39714;PMS5003;54166;53.172;-6.552;2023-04-25T15:05:07;2;2;
39714;PMS5003;54166;53.172;-6.552;2023-04-25T15:07:35;2;1;
39714;PMS5003;54166;53.172;-6.552;2023-04-25T15:10:03;3;2;
39714;PMS5003;54166;53.172;-6.552;2023-04-25T15:12:31;4;3;
39714;PMS5003;54166;53.172;-6.552;2023-04-25T15:14:59;1;1;
39714;PMS5003;54166;53.172;-6.552;2023-04-25T15:17:27;2;2;
39714;PMS5003;54166;53.172;-6.552;2023-04-25T15:19:55;2;1;
39714;PMS5003;54166;53.172;-6.552;2023-04-25T15:22:23;2;2;
39714;PMS5003;54166;53.172;-6.552;2023-04-25T15:24:51;3;3;
39714;PMS5003;54166;53.172;-6.552;2023-04-25T15:27:18;2;2;
39714;PMS5003;54166;53.172;-6.552;2023-04-25T15:29:46;2;2;
39714;PMS5003;54166;53.172;-6.552;2023-04-25T15:32:14;2;2;
39714;PMS5003;54166;53.172;-6.552;2023-04-25T15:34:42;2;2;
39714;PMS5003;54166;53.172;-6.552;2023-04-25T15:37:10;3;3;
39714;PMS5003;54166;53.172;-6.552;2023-04-25T15:39:38;3;3;
39714;PMS5003;54166;53.172;-6.552;2023-04-25T15:42:06;2;2;
39714;PMS5003;54166;53.172;-6.552;2023-04-25T15:44:33;3;3;
39714;PMS5003;54166;53.172;-6.552;2023-04-25T15:47:01;4;3;
39714;PMS5003;54166;53.172;-6.552;2023-04-25T15:49:29;3;3;
39714;PMS5003;54166;53.172;-6.552;2023-04-25T15:51:57;2;2;
39714;PMS5003;54166;53.172;-6.552;2023-04-25T15:54:25;3;3;
39714;PMS5003;54166;53.172;-6.552;2023-04-25T15:56:52;2;2;
39714;PMS5003;54166;53.172;-6.552;2023-04-25T15:59:20;3;3;
39714;PMS5003;54166;53.172;-6.552;2023-04-25T16:01:48;3;3;
39714;PMS5003;54166;53.172;-6.552;2023-04-25T16:04:16;3;3;
39714;PMS5003;54166;53.172;-6.552;2023-04-25T16:06:44;3;3;
39714;PMS5003;54166;53.172;-6.552;2023-04-25T16:09:12;3;3;
39714;PMS5003;54166;53.172;-6.552;2023-04-25T16:11:40;2;2;
39714;PMS5003;54166;53.172;-6.552;2023-04-25T16:14:07;2;2;
39714;PMS5003;54166;53.172;-6.552;2023-04-25T16:16:35;4;4;
39714;PMS5003;54166;53.172;-6.552;2023-04-25T16:19:03;2;2;
39714;PMS5003;54166;53.172;-6.552;2023-04-25T16:21:31;1;1;
39714;PMS5003;54166;53.172;-6.552;2023-04-25T16:23:59;4;4;
39714;PMS5003;54166;53.172;-6.552;2023-04-25T16:26:27;3;3;
39714;PMS5003;54166;53.172;-6.552;2023-04-25T16:28:55;4;4;
39714;PMS5003;54166;53.172;-6.552;2023-04-25T16:31:22;2;2;
39714;PMS5003;54166;53.172;-6.552;2023-04-25T16:33:50;2;2;
39714;PMS5003;54166;53.172;-6.552;2023-04-25T16:36:18;2;2;
39714;PMS5003;54166;53.172;-6.552;2023-04-25T16:38:46;5;4;
39714;PMS5003;54166;53.172;-6.552;2023-04-25T16:41:14;4;4;
39714;PMS5003;54166;53.172;-6.552;2023-04-25T16:43:42;3;3;